KINL/INL METAR and TAF weather

Enter ICAO airport designator
Station Type Date Time Source
KINL METAR 2020/09/27 03:55 UTC NOAA

KINL 270355Z AUTO 00000KT 10SM -RA OVC100 12/11 A2945 RMK AO2 SLP974 P0001 T01220111


Station Type Date Time Source
KINL Decoded METAR 2020/09/27 03:55 UTC NOAA

FALLS INTERNATIONAL AIRPORT , MN, United States (KINL) 48-34N 093-24W 360M
Sep 26, 2020 - 11:55 PM EDT / 2020.09.27 0355 UTC
Wind: Calm:0
Visibility: 10 mile(s):0
Sky conditions: overcast
Weather: light rain
Precipitation last hour: 0.01 inches
Temperature: 54.0 F (12.2 C)
Dew Point: 52.0 F (11.1 C)
Relative Humidity: 92%
Pressure (altimeter): 29.45 in. Hg (997 hPa)
ob: KINL 270355Z AUTO 00000KT 10SM -RA OVC100 12/11 A2945 RMK AO2 SLP974 P0001 T01220111
cycle: 4

Station Type Date Time Source
KINL TAF 2020/09/26 18:45 UTC NOAA

TAF KINL 261742Z 2618/2718 20007KT P6SM BKN150
FM262300 20005KT 5SM -SHRA BR BKN040 OVC090
FM270600 21005KT 5SM BR BKN090
FM271400 26010KT P6SM SCT020 BKN080

Example: see airport list